createdAt,value
2023-08-28T00:02:18.214Z,6.22
2023-08-28T00:04:47.066Z,5.65
2023-08-28T00:07:14.568Z,5.90
2023-08-28T00:09:43.742Z,7.00
2023-08-28T00:12:16.503Z,6.55
2023-08-28T00:14:43.132Z,5.18
2023-08-28T00:17:09.738Z,6.80
2023-08-28T00:19:38.535Z,6.30
2023-08-28T00:22:05.190Z,6.03
2023-08-28T00:24:36.436Z,7.70
2023-08-28T00:27:05.571Z,8.60
2023-08-28T00:29:35.350Z,6.53
2023-08-28T00:32:02.269Z,5.93
2023-08-28T00:34:31.244Z,6.90
2023-08-28T00:37:00.053Z,6.18
2023-08-28T00:39:26.678Z,6.70
2023-08-28T00:41:56.668Z,6.85
2023-08-28T00:44:25.595Z,6.97
2023-08-28T00:46:54.888Z,7.60
2023-08-28T00:49:23.972Z,6.97
2023-08-28T00:51:51.110Z,5.78
2023-08-28T00:54:20.411Z,6.60
2023-08-28T00:56:51.210Z,6.32
2023-08-28T00:59:21.756Z,6.40
2023-08-28T01:01:48.532Z,6.10
2023-08-28T01:04:18.015Z,6.57
2023-08-28T01:07:02.984Z,6.20
2023-08-28T01:10:01.061Z,6.75
2023-08-28T01:12:42.494Z,7.03
2023-08-28T01:15:22.046Z,5.70
2023-08-28T01:17:56.782Z,7.22
2023-08-28T01:20:25.299Z,6.13
2023-08-28T01:22:57.965Z,7.93
2023-08-28T01:25:30.969Z,6.70
2023-08-28T01:27:59.564Z,8.00
2023-08-28T01:30:27.156Z,7.63
2023-08-28T01:32:53.851Z,6.63
2023-08-28T01:35:25.496Z,7.40
2023-08-28T01:38:12.464Z,6.63
2023-08-28T01:40:55.612Z,7.95
2023-08-28T01:43:28.867Z,8.10
2023-08-28T01:45:59.317Z,6.80
2023-08-28T01:48:31.716Z,6.60
2023-08-28T01:50:58.287Z,8.13
2023-08-28T01:53:27.011Z,7.28
2023-08-28T01:56:08.792Z,8.05
2023-08-28T01:58:38.140Z,6.80
2023-08-28T02:01:07.215Z,7.75
2023-08-28T02:03:34.205Z,7.77
2023-08-28T02:06:03.418Z,7.15
2023-08-28T02:08:30.020Z,6.05
2023-08-28T02:10:58.929Z,6.35
2023-08-28T02:13:28.624Z,5.05
2023-08-28T02:15:57.719Z,5.27
2023-08-28T02:18:26.800Z,6.15
2023-08-28T02:20:54.060Z,5.20
2023-08-28T02:23:23.320Z,4.60
2023-08-28T02:25:50.269Z,4.68
2023-08-28T02:28:19.478Z,5.90
2023-08-28T02:30:46.887Z,6.20
2023-08-28T02:33:16.136Z,5.25
2023-08-28T02:35:47.492Z,6.40
2023-08-28T02:38:17.075Z,5.60
2023-08-28T02:40:43.805Z,3.93
2023-08-28T02:43:10.735Z,4.38
2023-08-28T02:45:42.632Z,3.92
2023-08-28T02:48:15.660Z,3.90
2023-08-28T02:50:42.389Z,3.88
2023-08-28T02:53:08.948Z,3.83
2023-08-28T02:55:42.170Z,4.68
2023-08-28T02:58:12.109Z,3.90
2023-08-28T03:00:44.180Z,3.75
2023-08-28T03:03:13.530Z,3.85
2023-08-28T03:05:47.523Z,3.60
2023-08-28T03:08:14.324Z,2.97
2023-08-28T03:10:43.173Z,8.70
2023-08-28T03:13:12.793Z,4.13
2023-08-28T03:15:43.548Z,5.38
2023-08-28T03:18:12.405Z,3.30
2023-08-28T03:20:39.014Z,4.35
2023-08-28T03:23:10.664Z,4.50
2023-08-28T03:25:42.445Z,3.90
2023-08-28T03:28:13.780Z,3.75
2023-08-28T03:30:40.381Z,4.43
2023-08-28T03:33:09.257Z,2.85
2023-08-28T03:35:38.054Z,2.75
2023-08-28T03:38:04.948Z,3.83
2023-08-28T03:40:33.738Z,4.00
2023-08-28T03:43:03.469Z,4.50
2023-08-28T03:45:32.615Z,4.90
2023-08-28T03:48:02.723Z,3.60
2023-08-28T03:50:34.378Z,3.25
2023-08-28T03:53:02.489Z,3.42
2023-08-28T03:55:30.599Z,4.20
2023-08-28T03:58:03.499Z,3.13
2023-08-28T04:00:34.041Z,4.63
2023-08-28T04:03:00.826Z,2.70
2023-08-28T04:05:34.213Z,3.75
2023-08-28T04:08:01.388Z,2.60
2023-08-28T04:10:33.180Z,4.25
2023-08-28T04:13:02.126Z,4.53
2023-08-28T04:15:29.391Z,4.35
2023-08-28T04:17:57.742Z,5.22
2023-08-28T04:20:24.356Z,2.83
2023-08-28T04:22:50.977Z,2.90
2023-08-28T04:25:20.797Z,4.55
2023-08-28T04:27:47.425Z,2.88
2023-08-28T04:30:14.687Z,5.07
2023-08-28T04:32:41.424Z,3.53
2023-08-28T04:35:08.547Z,3.30
2023-08-28T04:37:35.539Z,3.72
2023-08-28T04:40:02.300Z,2.92
2023-08-28T04:42:28.924Z,3.60
2023-08-28T04:44:57.849Z,4.63
2023-08-28T04:47:26.815Z,5.38
2023-08-28T04:49:55.763Z,3.38
2023-08-28T04:52:23.404Z,2.83
2023-08-28T04:54:50.068Z,4.68
2023-08-28T04:57:16.722Z,3.73
2023-08-28T04:59:43.382Z,3.13
2023-08-28T05:02:14.698Z,3.13
2023-08-28T05:04:41.313Z,3.78
2023-08-28T05:07:08.907Z,6.05
2023-08-28T05:09:35.687Z,3.17
2023-08-28T05:12:04.665Z,2.58
2023-08-28T05:14:33.503Z,3.72
2023-08-28T05:17:02.395Z,4.28
2023-08-28T05:19:28.957Z,4.20
2023-08-28T05:21:55.556Z,3.27
2023-08-28T05:24:22.122Z,3.03
2023-08-28T05:26:48.720Z,4.15
2023-08-28T05:29:15.429Z,3.20
2023-08-28T05:31:42.063Z,5.15
2023-08-28T05:34:10.098Z,3.13
2023-08-28T05:36:39.308Z,3.22
2023-08-28T05:39:06.185Z,3.67
2023-08-28T05:41:32.848Z,3.55
2023-08-28T05:43:59.578Z,3.22
2023-08-28T05:46:28.780Z,3.37
2023-08-28T05:48:57.711Z,4.70
2023-08-28T05:51:26.830Z,3.72
2023-08-28T05:53:55.508Z,2.55
2023-08-28T05:56:22.147Z,2.78
2023-08-28T05:58:51.791Z,4.67
2023-08-28T06:01:21.000Z,2.50
2023-08-28T06:03:52.125Z,2.25
2023-08-28T06:06:18.877Z,2.28
2023-08-28T06:08:48.716Z,3.13
2023-08-28T06:11:15.304Z,2.83
2023-08-28T06:13:42.020Z,2.78
2023-08-28T06:16:10.696Z,3.33
2023-08-28T06:18:39.666Z,2.70
2023-08-28T06:21:06.281Z,5.43
2023-08-28T06:23:32.935Z,4.13
2023-08-28T06:25:59.572Z,2.88
2023-08-28T06:28:26.230Z,1.83
2023-08-28T06:30:52.959Z,4.35
2023-08-28T06:33:21.798Z,2.38
2023-08-28T06:35:48.947Z,4.30
2023-08-28T06:38:17.854Z,5.07
2023-08-28T06:40:52.249Z,2.35
2023-08-28T06:43:19.070Z,2.10
2023-08-28T06:45:48.747Z,3.65
2023-08-28T06:48:17.652Z,3.50
2023-08-28T06:50:44.315Z,4.18
2023-08-28T06:53:10.968Z,3.95
2023-08-28T06:55:39.903Z,3.45
2023-08-28T06:58:06.553Z,3.65
2023-08-28T07:00:37.934Z,3.77
2023-08-28T07:03:07.441Z,2.35
2023-08-28T07:05:34.489Z,3.65
2023-08-28T07:08:04.668Z,3.35
2023-08-28T07:10:31.467Z,3.47
2023-08-28T07:13:00.507Z,3.13
2023-08-28T07:15:29.525Z,4.80
2023-08-28T07:17:58.973Z,3.15
2023-08-28T07:20:25.675Z,3.20
2023-08-28T07:22:54.882Z,3.25
2023-08-28T07:25:23.080Z,3.70
2023-08-28T07:27:53.213Z,1.95
2023-08-28T07:30:20.079Z,3.03
2023-08-28T07:32:47.084Z,3.60
2023-08-28T07:35:14.511Z,2.10
2023-08-28T07:37:43.564Z,3.37
2023-08-28T07:40:12.984Z,4.53
2023-08-28T07:42:41.894Z,2.95
2023-08-28T07:45:11.660Z,2.80
2023-08-28T07:47:39.607Z,2.88
2023-08-28T07:50:08.735Z,3.53
2023-08-28T07:52:35.359Z,3.38
2023-08-28T07:55:07.711Z,3.92
2023-08-28T07:57:37.491Z,2.53
2023-08-28T08:00:08.892Z,3.92
2023-08-28T08:02:36.002Z,4.47
2023-08-28T08:05:05.626Z,3.30
2023-08-28T08:07:35.565Z,2.53
2023-08-28T08:10:05.002Z,2.20
2023-08-28T08:12:31.631Z,2.28
2023-08-28T08:14:58.213Z,3.40
2023-08-28T08:17:24.828Z,2.75
2023-08-28T08:19:51.480Z,4.28
2023-08-28T08:22:20.623Z,6.15
2023-08-28T08:24:49.478Z,3.00
2023-08-28T08:27:16.791Z,4.50
2023-08-28T08:29:50.138Z,4.72
2023-08-28T08:32:17.298Z,2.67
2023-08-28T08:34:49.180Z,2.55
2023-08-28T08:37:18.235Z,2.33
2023-08-28T08:39:45.473Z,2.77
2023-08-28T08:42:14.545Z,2.53
2023-08-28T08:44:41.181Z,1.95
2023-08-28T08:47:10.762Z,3.22
2023-08-28T08:49:43.169Z,3.97
2023-08-28T08:52:13.938Z,2.37
2023-08-28T08:54:45.525Z,2.95
2023-08-28T08:57:32.146Z,2.50
2023-08-28T08:59:59.136Z,4.03
2023-08-28T09:02:29.056Z,4.63
2023-08-28T09:04:56.199Z,4.63
2023-08-28T09:07:24.428Z,4.32
2023-08-28T09:09:51.606Z,2.53
2023-08-28T09:12:23.249Z,4.35
2023-08-28T09:14:49.901Z,2.63
2023-08-28T09:17:21.614Z,3.50
2023-08-28T09:19:48.973Z,2.90
2023-08-28T09:22:15.677Z,3.20
2023-08-28T09:24:44.851Z,3.50
2023-08-28T09:27:14.379Z,3.67
2023-08-28T09:29:41.175Z,2.80
2023-08-28T09:32:10.334Z,2.95
2023-08-28T09:34:42.791Z,3.40
2023-08-28T09:37:14.915Z,2.38
2023-08-28T09:39:55.699Z,4.13
2023-08-28T09:42:25.754Z,3.67
2023-08-28T09:44:52.601Z,4.45
2023-08-28T09:47:29.100Z,2.58
2023-08-28T09:49:58.215Z,3.13
2023-08-28T09:52:27.882Z,4.05
2023-08-28T09:55:08.588Z,3.47
2023-08-28T09:57:35.392Z,3.63
2023-08-28T10:00:03.173Z,2.85
2023-08-28T10:02:34.924Z,6.20
2023-08-28T10:05:06.536Z,3.83
2023-08-28T10:07:36.165Z,3.13
2023-08-28T10:10:11.700Z,3.53
2023-08-28T10:12:41.787Z,2.70
2023-08-28T10:15:12.992Z,4.28
2023-08-28T10:17:41.571Z,3.00
2023-08-28T10:20:11.736Z,3.93
2023-08-28T10:22:48.676Z,2.63
2023-08-28T10:25:17.849Z,3.30
2023-08-28T10:27:47.435Z,3.90
2023-08-28T10:30:17.788Z,2.97
2023-08-28T10:32:49.182Z,2.80
2023-08-28T10:35:17.957Z,4.32
2023-08-28T10:37:48.224Z,2.88
2023-08-28T10:40:19.746Z,4.15
2023-08-28T10:42:50.764Z,4.07
2023-08-28T10:45:19.593Z,3.00
2023-08-28T10:47:54.077Z,3.05
2023-08-28T10:50:20.926Z,4.90
2023-08-28T10:52:49.934Z,3.90
2023-08-28T10:55:19.798Z,2.85
2023-08-28T10:57:56.395Z,5.03
2023-08-28T11:00:24.232Z,5.57
2023-08-28T11:03:19.790Z,5.20
2023-08-28T11:05:46.604Z,5.05
2023-08-28T11:08:16.163Z,5.07
2023-08-28T11:10:49.143Z,5.80
2023-08-28T11:13:24.130Z,4.72
2023-08-28T11:16:03.549Z,3.92
2023-08-28T11:18:31.561Z,4.38
2023-08-28T11:21:08.325Z,5.47
2023-08-28T11:23:40.731Z,5.63
2023-08-28T11:26:16.650Z,4.30
2023-08-28T11:28:48.261Z,5.03
2023-08-28T11:31:16.079Z,4.75
2023-08-28T11:33:45.408Z,4.38
2023-08-28T11:36:21.048Z,3.30
2023-08-28T11:38:51.114Z,4.13
2023-08-28T11:41:23.766Z,4.20
2023-08-28T11:43:53.313Z,4.80
2023-08-28T11:46:25.930Z,4.38
2023-08-28T11:48:54.812Z,5.87
2023-08-28T11:51:27.238Z,6.03
2023-08-28T11:53:53.856Z,5.85
2023-08-28T11:56:22.555Z,5.57
2023-08-28T11:58:54.034Z,6.55
2023-08-28T12:01:21.260Z,5.40
2023-08-28T12:03:52.131Z,6.85
2023-08-28T12:06:21.373Z,6.05
2023-08-28T12:08:48.487Z,5.72
2023-08-28T12:11:19.387Z,7.65
2023-08-28T12:13:46.033Z,6.73
2023-08-28T12:16:16.682Z,4.68
2023-08-28T12:18:46.760Z,4.97
2023-08-28T12:21:16.300Z,5.30
2023-08-28T12:23:55.247Z,4.80
2023-08-28T12:26:26.030Z,6.27
2023-08-28T12:28:59.468Z,4.38
2023-08-28T12:31:36.071Z,4.90
2023-08-28T12:34:12.733Z,3.40
2023-08-28T12:36:40.397Z,3.67
2023-08-28T12:39:14.215Z,4.33
2023-08-28T12:41:51.289Z,3.97
2023-08-28T12:44:23.048Z,5.10
2023-08-28T12:46:52.416Z,5.63
2023-08-28T12:49:22.246Z,4.40
2023-08-28T12:51:52.179Z,4.07
2023-08-28T12:54:21.257Z,4.47
2023-08-28T12:56:53.833Z,6.10
2023-08-28T12:59:26.812Z,4.82
2023-08-28T13:01:54.754Z,5.60
2023-08-28T13:04:23.710Z,6.80
2023-08-28T13:06:56.175Z,5.00
2023-08-28T13:09:24.452Z,4.65
2023-08-28T13:11:51.692Z,3.80
2023-08-28T13:14:18.720Z,5.18
2023-08-28T13:16:45.462Z,3.33
2023-08-28T13:19:14.295Z,4.15
2023-08-28T13:21:44.293Z,3.22
2023-08-28T13:24:13.321Z,3.65
2023-08-28T13:26:42.055Z,3.53
2023-08-28T13:29:08.641Z,4.90
2023-08-28T13:31:38.310Z,4.60
2023-08-28T13:34:05.072Z,3.92
2023-08-28T13:36:34.073Z,3.63
2023-08-28T13:39:05.265Z,4.20
2023-08-28T13:41:34.168Z,3.63
2023-08-28T13:44:00.905Z,5.00
2023-08-28T13:46:27.991Z,4.75
2023-08-28T13:48:54.606Z,5.72
2023-08-28T13:51:24.166Z,4.85
2023-08-28T13:53:53.296Z,3.57
2023-08-28T13:56:22.517Z,4.80
2023-08-28T13:58:49.240Z,3.92
2023-08-28T14:01:18.072Z,3.92
2023-08-28T14:03:44.681Z,3.50
2023-08-28T14:06:13.939Z,4.10
2023-08-28T14:08:40.540Z,4.03
2023-08-28T14:11:13.729Z,3.50
2023-08-28T14:13:40.924Z,3.28
2023-08-28T14:16:08.078Z,3.15
2023-08-28T14:18:37.512Z,3.10
2023-08-28T14:21:05.168Z,4.22
2023-08-28T14:23:33.008Z,3.45
2023-08-28T14:26:06.982Z,3.22
2023-08-28T14:28:36.190Z,2.97
2023-08-28T14:31:05.032Z,2.57
2023-08-28T14:33:31.863Z,3.50
2023-08-28T14:36:00.864Z,2.70
2023-08-28T14:38:32.638Z,2.70
2023-08-28T14:40:59.431Z,2.47
2023-08-28T14:43:28.419Z,3.23
2023-08-28T14:45:55.516Z,2.47
2023-08-28T14:48:22.253Z,4.60
2023-08-28T14:50:48.883Z,2.50
2023-08-28T14:53:17.726Z,3.58
2023-08-28T14:55:51.697Z,3.03
2023-08-28T14:58:20.662Z,2.83
2023-08-28T15:00:58.165Z,2.28
2023-08-28T15:03:25.928Z,2.22
2023-08-28T15:05:54.689Z,2.70
2023-08-28T15:08:24.046Z,2.93
2023-08-28T15:10:53.259Z,2.60
2023-08-28T15:13:20.005Z,2.55
2023-08-28T15:15:47.802Z,2.78
2023-08-28T15:18:14.615Z,2.53
2023-08-28T15:20:42.037Z,3.87
2023-08-28T15:23:11.233Z,1.98
2023-08-28T15:25:40.439Z,2.63
2023-08-28T15:28:11.969Z,4.43
2023-08-28T15:30:38.651Z,3.20
2023-08-28T15:33:06.104Z,3.03
2023-08-28T15:35:35.365Z,2.53
2023-08-28T15:38:04.213Z,3.42
2023-08-28T15:40:33.261Z,3.40
2023-08-28T15:42:59.818Z,2.10
2023-08-28T15:45:28.920Z,2.43
2023-08-28T15:47:55.532Z,2.95
2023-08-28T15:50:22.160Z,2.92
2023-08-28T15:52:48.755Z,1.52
2023-08-28T15:55:17.776Z,3.47
2023-08-28T15:57:44.500Z,2.57
2023-08-28T16:00:13.902Z,2.75
2023-08-28T16:02:40.877Z,3.00
2023-08-28T16:05:10.016Z,2.65
2023-08-28T16:07:36.581Z,2.63
2023-08-28T16:10:06.270Z,3.30
2023-08-28T16:12:33.086Z,2.28
2023-08-28T16:15:02.184Z,1.83
2023-08-28T16:17:28.808Z,2.65
2023-08-28T16:19:55.432Z,1.88
2023-08-28T16:22:24.131Z,2.17
2023-08-28T16:24:50.809Z,1.65
2023-08-28T16:27:19.928Z,2.72
2023-08-28T16:29:46.530Z,3.53
2023-08-28T16:32:17.728Z,1.50
2023-08-28T16:34:47.248Z,2.33
2023-08-28T16:37:19.166Z,1.92
2023-08-28T16:39:45.861Z,2.40
2023-08-28T16:42:14.850Z,1.23
2023-08-28T16:44:44.132Z,2.00
2023-08-28T16:47:10.732Z,1.83
2023-08-28T16:49:39.546Z,1.52
2023-08-28T16:52:06.429Z,1.60
2023-08-28T16:54:35.511Z,1.50
2023-08-28T16:57:04.339Z,1.25
2023-08-28T16:59:35.805Z,1.63
2023-08-28T17:02:02.448Z,2.22
2023-08-28T17:04:34.053Z,2.38
2023-08-28T17:07:01.330Z,1.90
2023-08-28T17:09:29.552Z,2.13
2023-08-28T17:12:00.646Z,1.67
2023-08-28T17:14:29.648Z,1.98
2023-08-28T17:16:58.187Z,2.17
2023-08-28T17:19:27.668Z,2.10
2023-08-28T17:21:54.335Z,2.05
2023-08-28T17:24:24.375Z,1.60
2023-08-28T17:26:50.982Z,2.90
2023-08-28T17:29:17.720Z,1.40
2023-08-28T17:31:44.556Z,1.52
2023-08-28T17:34:11.228Z,2.13
2023-08-28T17:36:42.676Z,2.50
2023-08-28T17:39:25.112Z,2.30
2023-08-28T17:41:53.894Z,2.53
2023-08-28T17:44:20.546Z,2.55
2023-08-28T17:46:47.223Z,2.15
2023-08-28T17:49:14.171Z,2.70
2023-08-28T17:51:44.079Z,1.75
2023-08-28T17:54:10.796Z,2.03
2023-08-28T17:56:37.672Z,2.15
2023-08-28T17:59:04.870Z,1.58
2023-08-28T18:01:31.988Z,1.40
2023-08-28T18:03:59.053Z,1.52
2023-08-28T18:06:25.752Z,2.55
2023-08-28T18:08:55.416Z,2.22
2023-08-28T18:11:22.068Z,2.25
2023-08-28T18:13:51.078Z,1.83
2023-08-28T18:16:18.898Z,1.75
2023-08-28T18:18:49.117Z,1.95
2023-08-28T18:21:18.520Z,1.65
2023-08-28T18:23:47.930Z,1.70
2023-08-28T18:26:14.589Z,2.43
2023-08-28T18:28:41.188Z,2.88
2023-08-28T18:31:07.868Z,2.30
2023-08-28T18:33:34.484Z,2.13
2023-08-28T18:36:05.066Z,3.30
2023-08-28T18:38:31.861Z,3.93
2023-08-28T18:41:03.885Z,2.63
2023-08-28T18:43:30.491Z,2.50
2023-08-28T18:46:00.106Z,2.92
2023-08-28T18:48:29.011Z,3.20
2023-08-28T18:50:55.656Z,2.63
2023-08-28T18:53:24.414Z,2.80
2023-08-28T18:55:55.600Z,3.30
2023-08-28T18:58:23.022Z,2.17
2023-08-28T19:00:52.162Z,4.10
2023-08-28T19:03:18.844Z,2.87
2023-08-28T19:05:46.008Z,4.35
2023-08-28T19:08:14.855Z,3.72
2023-08-28T19:10:43.986Z,2.55
2023-08-28T19:13:13.528Z,2.50
2023-08-28T19:15:40.179Z,2.40
2023-08-28T19:18:07.266Z,3.25
2023-08-28T19:20:59.703Z,3.72
2023-08-28T19:23:28.316Z,3.80
2023-08-28T19:25:54.930Z,2.90
2023-08-28T19:28:26.370Z,4.47
2023-08-28T19:30:53.166Z,4.13
2023-08-28T19:33:22.903Z,3.33
2023-08-28T19:35:50.660Z,4.32
2023-08-28T19:38:18.724Z,3.47
2023-08-28T19:40:48.094Z,4.87
2023-08-28T19:43:22.054Z,5.93
2023-08-28T19:45:48.731Z,4.20
2023-08-28T19:48:15.532Z,4.03
2023-08-28T19:50:42.146Z,5.13
2023-08-28T19:53:08.811Z,7.03
2023-08-28T19:55:37.616Z,4.20
2023-08-28T19:58:06.922Z,5.05
2023-08-28T20:00:33.911Z,5.20
2023-08-28T20:03:03.267Z,6.60
2023-08-28T20:05:32.745Z,5.30
2023-08-28T20:07:59.425Z,6.10
2023-08-28T20:10:26.093Z,5.47
2023-08-28T20:12:54.485Z,5.47
2023-08-28T20:15:23.337Z,6.47
2023-08-28T20:17:51.883Z,5.23
2023-08-28T20:20:21.088Z,5.32
2023-08-28T20:22:48.120Z,6.45
2023-08-28T20:25:17.121Z,5.22
2023-08-28T20:27:46.100Z,4.72
2023-08-28T20:30:15.560Z,5.30
2023-08-28T20:32:44.644Z,5.43
2023-08-28T20:35:11.996Z,6.05
2023-08-28T20:37:38.736Z,6.55
2023-08-28T20:40:06.070Z,6.03
2023-08-28T20:42:36.552Z,5.73
2023-08-28T20:45:06.066Z,6.22
2023-08-28T20:47:37.385Z,5.57
2023-08-28T20:50:08.511Z,6.03
2023-08-28T20:52:41.102Z,7.40
2023-08-28T20:55:08.637Z,5.77
2023-08-28T20:57:35.543Z,7.35
2023-08-28T21:00:02.236Z,6.18
2023-08-28T21:02:31.559Z,6.75
2023-08-28T21:05:01.156Z,5.32
2023-08-28T21:07:30.199Z,6.40
2023-08-28T21:09:56.840Z,6.78
2023-08-28T21:12:23.828Z,6.18
2023-08-28T21:14:53.064Z,4.53
2023-08-28T21:17:20.111Z,5.18
2023-08-28T21:19:49.062Z,4.10
2023-08-28T21:22:18.462Z,4.63
2023-08-28T21:24:47.573Z,4.72
2023-08-28T21:27:15.266Z,4.13
2023-08-28T21:29:44.292Z,4.18
2023-08-28T21:32:10.979Z,4.00
2023-08-28T21:34:39.813Z,3.45
2023-08-28T21:37:08.642Z,3.53
2023-08-28T21:39:38.086Z,3.25
2023-08-28T21:42:07.223Z,3.20
2023-08-28T21:44:37.014Z,4.90
2023-08-28T21:47:05.847Z,4.80
2023-08-28T21:49:32.418Z,3.70
2023-08-28T21:51:59.137Z,4.15
2023-08-28T21:54:25.780Z,3.60
2023-08-28T21:56:55.907Z,4.13
2023-08-28T21:59:25.280Z,3.42
2023-08-28T22:01:54.443Z,3.05
2023-08-28T22:04:21.101Z,3.42
2023-08-28T22:06:48.055Z,4.18
2023-08-28T22:09:14.665Z,5.20
2023-08-28T22:11:46.149Z,2.70
2023-08-28T22:14:15.295Z,2.80
2023-08-28T22:16:44.415Z,3.42
2023-08-28T22:19:11.435Z,4.47
2023-08-28T22:21:42.683Z,3.30
2023-08-28T22:24:09.564Z,3.63
2023-08-28T22:26:38.761Z,3.05
2023-08-28T22:29:07.665Z,3.05
2023-08-28T22:31:36.522Z,3.75
2023-08-28T22:34:08.765Z,3.03
2023-08-28T22:36:40.313Z,3.50
2023-08-28T22:39:06.928Z,3.13
2023-08-28T22:41:36.768Z,3.50
2023-08-28T22:44:05.933Z,4.07
2023-08-28T22:46:35.117Z,4.77
2023-08-28T22:49:06.471Z,4.88
2023-08-28T22:51:33.152Z,3.75
2023-08-28T22:53:59.858Z,4.38
2023-08-28T22:56:26.919Z,3.53
2023-08-28T22:58:55.890Z,4.60
2023-08-28T23:01:22.561Z,3.45
2023-08-28T23:03:49.321Z,5.00
2023-08-28T23:06:16.526Z,5.63
2023-08-28T23:08:43.200Z,3.65
2023-08-28T23:11:12.233Z,3.50
2023-08-28T23:13:38.783Z,2.88
2023-08-28T23:16:10.307Z,3.08
2023-08-28T23:18:37.350Z,3.45
2023-08-28T23:21:06.772Z,4.55
2023-08-28T23:23:34.082Z,3.07
2023-08-28T23:26:01.025Z,2.70
2023-08-28T23:28:27.802Z,3.30
2023-08-28T23:30:54.913Z,4.22
2023-08-28T23:33:24.177Z,3.17
2023-08-28T23:35:58.629Z,2.67
2023-08-28T23:38:25.522Z,4.10
2023-08-28T23:40:53.766Z,3.72
2023-08-28T23:43:22.820Z,3.42
2023-08-28T23:45:49.497Z,4.43
2023-08-28T23:48:18.536Z,3.93
2023-08-28T23:50:47.670Z,3.90
2023-08-28T23:53:16.968Z,3.08
2023-08-28T23:55:45.901Z,5.72
2023-08-28T23:58:17.230Z,3.83
